Time;durP1;ratioP1;P1;durP2;ratioP2;P2;SDS_P1;SDS_P2;PMS_P1;PMS_P2;Temp;Humidity;BMP_temperature;BMP_pressure;BME280_temperature;BME280_humidity;BME280_pressure;Samples;Min_cycle;Max_cycle;Signal;HPM_P1;HPM_P2
2022/01/12 00:02:00;;;;;;;;;81.00;53.67;;;;;8.57;69.58;103295.91;5064664;28;61923;-72
2022/01/12 00:04:26;;;;;;;;;71.00;51.00;;;;;8.52;71.03;103294.56;5065152;28;61968;-71
2022/01/12 00:06:51;;;;;;;;;79.00;52.33;;;;;8.57;71.20;103302.06;5064856;28;62003;-72
2022/01/12 00:09:17;;;;;;;;;75.33;53.33;;;;;8.60;70.50;103294.47;5064302;28;61767;-71
2022/01/12 00:11:42;;;;;;;;;75.67;56.33;;;;;8.64;70.54;103300.03;5064852;28;61814;-71
2022/01/12 00:14:08;;;;;;;;;75.33;54.67;;;;;8.66;71.23;103304.63;5079991;28;61927;-71
2022/01/12 00:16:34;;;;;;;;;74.67;53.67;;;;;8.66;70.39;103301.09;5064988;28;61836;-72
2022/01/12 00:19:00;;;;;;;;;71.67;53.33;;;;;8.68;70.46;103302.16;5063785;28;61982;-71
2022/01/12 00:21:26;;;;;;;;;75.33;57.00;;;;;8.70;70.72;103303.22;5064826;28;61743;-72
2022/01/12 00:23:51;;;;;;;;;77.00;57.25;;;;;8.70;70.49;103298.88;5079934;28;61849;-71
2022/01/12 00:34:28;;;;;;;;;67.00;52.67;;;;;8.64;70.46;103293.09;5050024;28;61808;-71
2022/01/12 00:36:54;;;;;;;;;70.00;53.00;;;;;8.64;70.86;103297.41;5044423;28;61932;-71
2022/01/12 00:39:19;;;;;;;;;73.50;53.50;;;;;8.64;70.37;103305.25;5043380;28;62833;-72
2022/01/12 00:41:45;;;;;;;;;80.67;58.33;;;;;8.62;70.28;103309.44;5044217;28;61866;-71
2022/01/12 00:44:21;;;;;;;;;82.33;56.00;;;;;8.60;70.71;103317.13;5043790;28;62316;-72
2022/01/12 00:46:46;;;;;;;;;81.00;54.33;;;;;8.61;70.79;103316.34;5044306;28;61957;-71
2022/01/12 00:49:12;;;;;;;;;81.00;59.00;;;;;8.58;70.51;103319.59;5043319;28;62577;-71
2022/01/12 00:51:39;;;;;;;;;72.67;53.33;;;;;8.56;69.98;103328.09;5043402;28;61802;-71
2022/01/12 00:54:06;;;;;;;;;71.00;50.25;;;;;8.57;70.62;103345.66;5043627;28;61813;-71
2022/01/12 00:56:32;;;;;;;;;77.00;53.33;;;;;8.47;70.63;103349.09;5044130;28;61877;-71
2022/01/12 00:58:58;;;;;;;;;76.33;57.67;;;;;8.46;70.41;103355.13;5043016;28;63178;-72
2022/01/12 01:01:24;;;;;;;;;57.00;38.67;;;;;8.39;70.70;103348.31;5043837;28;61814;-71
2022/01/12 01:03:50;;;;;;;;;75.67;55.00;;;;;8.43;71.11;103353.91;5044040;28;61852;-71
2022/01/12 01:06:17;;;;;;;;;75.75;54.00;;;;;8.47;70.71;103356.94;5043919;28;62904;-71
2022/01/12 01:08:44;;;;;;;;;73.67;52.67;;;;;8.38;70.79;103366.53;5058542;28;63789;-71
2022/01/12 01:11:10;;;;;;;;;84.67;55.33;;;;;8.37;70.59;103362.97;5043679;28;62247;-71
2022/01/12 01:13:48;;;;;;;;;73.33;56.33;;;;;8.40;70.97;103359.75;5043595;28;61896;-71
2022/01/12 01:26:55;;;;;;;;;77.33;53.67;;;;;8.36;70.98;103389.00;5043296;28;61846;-71
2022/01/12 01:29:20;;;;;;;;;70.00;53.33;;;;;8.35;71.09;103390.69;5042702;28;62020;-71
2022/01/12 01:31:47;;;;;;;;;80.33;59.00;;;;;8.38;70.44;103393.59;5043546;28;61971;-71
2022/01/12 01:34:15;;;;;;;;;79.33;54.00;;;;;8.32;70.64;103400.88;5055284;28;62117;-71
2022/01/12 01:36:46;;;;;;;;;70.33;55.00;;;;;8.24;69.70;103400.91;5063814;28;61660;-71
2022/01/12 01:39:15;;;;;;;;;74.67;56.00;;;;;8.16;70.04;103401.09;5062577;28;61757;-71
2022/01/12 01:41:43;;;;;;;;;79.00;57.00;;;;;8.18;70.82;103402.19;5063078;28;61793;-71
2022/01/12 01:44:34;;;;;;;;;75.00;53.67;;;;;8.16;70.94;103400.16;5063304;28;61979;-71
2022/01/12 01:55:09;;;;;;;;;81.00;54.00;;;;;8.29;71.43;103389.19;5062582;28;61903;-71
2022/01/12 01:57:35;;;;;;;;;82.33;60.33;;;;;8.31;70.28;103387.63;5063458;28;61844;-71
2022/01/12 02:00:05;;;;;;;;;72.00;53.00;;;;;8.35;70.63;103395.00;5062594;28;61813;-71
2022/01/12 02:02:31;;;;;;;;;76.33;55.33;;;;;8.38;70.31;103392.69;5061543;28;62213;-72
2022/01/12 02:04:56;;;;;;;;;69.67;52.67;;;;;8.38;70.29;103390.06;5061897;28;61920;-71
2022/01/12 02:07:22;;;;;;;;;75.33;53.33;;;;;8.41;70.19;103395.63;5063095;28;61880;-71
2022/01/12 02:09:48;;;;;;;;;72.00;51.00;;;;;8.41;70.54;103403.47;5061979;28;63065;-71
2022/01/12 02:12:13;;;;;;;;;74.33;51.33;;;;;8.41;70.87;103416.56;5078272;28;61811;-71
2022/01/12 02:14:39;;;;;;;;;79.33;56.00;;;;;8.40;71.01;103422.56;5062838;28;61806;-72
2022/01/12 02:17:18;;;;;;;;;84.67;57.33;;;;;8.42;71.52;103417.47;5063138;28;62170;-71
2022/01/12 02:36:20;;;;;;;;;84.33;56.33;;;;;8.27;71.29;103369.78;5042345;28;61787;-71
2022/01/12 02:41:29;;;;;;;;;72.33;56.00;;;;;8.08;70.79;103359.28;5041619;28;62638;-71
2022/01/12 02:55:05;;;;;;;;;75.67;54.67;;;;;8.19;71.54;103343.81;5058981;28;61973;-71
2022/01/12 02:57:30;;;;;;;;;84.67;56.33;;;;;8.11;71.00;103344.78;5059510;28;62417;-71
2022/01/12 03:00:08;;;;;;;;;74.67;52.33;;;;;8.14;71.64;103352.94;5059920;28;61868;-71
2022/01/12 03:02:38;;;;;;;;;80.67;60.00;;;;;8.22;71.49;103360.59;5058993;28;61828;-71
2022/01/12 03:07:49;;;;;;;;;76.67;54.00;;;;;8.23;70.69;103365.97;5059822;28;61868;-71
2022/01/12 03:10:15;;;;;;;;;82.67;56.33;;;;;8.23;70.92;103383.38;5059738;28;62081;-71
2022/01/12 03:12:43;;;;;;;;;78.67;56.67;;;;;8.22;70.65;103389.38;5058847;28;62423;-71
2022/01/12 03:15:09;;;;;;;;;83.33;61.00;;;;;8.19;71.49;103397.84;5060228;28;61969;-71
2022/01/12 03:17:35;;;;;;;;;78.00;59.67;;;;;8.20;71.78;103386.59;5063272;28;62010;-72
2022/01/12 03:20:01;;;;;;;;;82.00;56.00;;;;;8.27;71.89;103393.34;5046359;28;62181;-71
2022/01/12 03:22:27;;;;;;;;;74.67;56.33;;;;;8.30;70.93;103388.41;5045082;28;61951;-71
2022/01/12 03:24:52;;;;;;;;;76.33;54.00;;;;;8.28;71.51;103383.03;5045029;28;62390;-71
2022/01/12 03:27:18;;;;;;;;;82.33;60.00;;;;;8.26;70.56;103384.56;5045332;28;61687;-72
2022/01/12 03:29:49;;;;;;;;;77.75;53.75;;;;;8.25;71.40;103377.50;5045479;28;61740;-71
2022/01/12 03:32:17;;;;;;;;;74.33;54.33;;;;;8.28;71.15;103379.50;5044668;28;62865;-71
2022/01/12 03:34:52;;;;;;;;;72.50;55.00;;;;;8.30;71.55;103377.94;5061323;28;61824;-71
2022/01/12 03:37:40;;;;;;;;;79.00;56.67;;;;;8.30;71.62;103380.56;5065196;28;62025;-71
2022/01/12 03:40:05;;;;;;;;;78.00;54.33;;;;;8.30;70.83;103380.56;5065229;27;61840;-72
2022/01/12 03:42:30;;;;;;;;;80.33;57.67;;;;;8.29;71.58;103378.72;5065026;28;61879;-71
2022/01/12 03:44:56;;;;;;;;;77.33;53.33;;;;;8.24;71.08;103385.22;5080806;28;61905;-71
2022/01/12 03:47:21;;;;;;;;;81.33;53.00;;;;;8.25;70.92;103374.91;5065318;28;62531;-72
2022/01/12 03:49:47;;;;;;;;;77.67;56.00;;;;;8.24;70.71;103393.97;5065193;28;61858;-71
2022/01/12 03:52:12;;;;;;;;;82.33;54.67;;;;;8.25;71.48;103400.13;5064203;28;62748;-72
2022/01/12 03:54:38;;;;;;;;;83.00;54.33;;;;;8.27;71.54;103409.03;5064791;28;61896;-71
2022/01/12 03:57:04;;;;;;;;;77.33;54.67;;;;;8.25;71.30;103414.16;5064734;28;61717;-71
2022/01/12 03:59:29;;;;;;;;;70.33;52.00;;;;;8.26;71.77;103425.53;5065249;28;61948;-71
2022/01/12 04:01:55;;;;;;;;;83.67;52.00;;;;;8.24;72.07;103404.44;5064033;28;62834;-71
2022/01/12 04:04:29;;;;;;;;;84.00;58.67;;;;;8.28;71.14;103419.66;5064895;28;61744;-71
2022/01/12 04:09:39;;;;;;;;;80.00;56.67;;;;;8.18;71.39;103430.97;5064788;28;61836;-71
2022/01/12 04:12:04;;;;;;;;;80.00;55.67;;;;;8.23;71.65;103435.72;5064268;28;63243;-71
2022/01/12 04:14:30;;;;;;;;;72.67;57.67;;;;;8.23;71.49;103443.56;5080298;27;61942;-71
2022/01/12 04:16:55;;;;;;;;;79.33;53.33;;;;;8.17;71.13;103447.41;5064674;28;62277;-71
2022/01/12 04:19:24;;;;;;;;;72.67;53.00;;;;;8.11;70.65;103465.13;5065084;28;62084;-71
2022/01/12 04:21:50;;;;;;;;;71.33;53.00;;;;;8.07;71.83;103462.06;5063770;28;61856;-71
2022/01/12 04:24:16;;;;;;;;;79.00;53.33;;;;;7.98;71.20;103467.31;5064709;28;62038;-71
2022/01/12 04:26:42;;;;;;;;;78.33;54.33;;;;;7.95;72.16;103481.03;5063370;28;61980;-71
2022/01/12 04:29:07;;;;;;;;;70.00;49.00;;;;;7.88;72.25;103478.56;5080492;28;61913;-71
2022/01/12 04:31:37;;;;;;;;;68.00;49.33;;;;;7.81;72.18;103472.59;5064011;28;62353;-71
2022/01/12 04:34:06;;;;;;;;;73.00;54.00;;;;;7.84;71.75;103472.88;5068540;28;61876;-71
2022/01/12 04:36:32;;;;;;;;;93.00;62.33;;;;;7.88;72.37;103475.94;5044370;28;61980;-71
2022/01/12 04:38:58;;;;;;;;;77.67;56.00;;;;;7.92;72.40;103480.69;5042503;28;61881;-71
2022/01/12 04:41:24;;;;;;;;;69.00;49.33;;;;;7.94;71.71;103487.00;5043785;28;62764;-71
2022/01/12 04:43:51;;;;;;;;;73.00;50.25;;;;;7.95;71.97;103482.72;5044118;28;61956;-71
2022/01/12 04:51:10;;;;;;;;;75.67;55.67;;;;;7.97;72.35;103487.31;5043191;28;63027;-71
2022/01/12 04:53:36;;;;;;;;;68.00;53.00;;;;;7.92;71.45;103483.31;5044146;28;61745;-71
2022/01/12 04:56:02;;;;;;;;;72.00;46.33;;;;;7.80;71.95;103474.28;5043222;28;61890;-71
2022/01/12 04:58:28;;;;;;;;;78.33;54.00;;;;;7.71;71.68;103471.69;5043999;28;61918;-71
2022/01/12 05:00:57;;;;;;;;;82.00;56.67;;;;;7.63;71.67;103482.16;5043262;28;61718;-71
2022/01/12 05:06:38;;;;;;;;;76.25;50.50;;;;;7.48;72.68;103489.38;5043431;28;62123;-71
2022/01/12 05:09:30;;;;;;;;;75.00;53.33;;;;;7.50;72.80;103493.97;5043713;28;62008;-71
2022/01/12 05:14:40;;;;;;;;;74.67;57.00;;;;;7.68;72.40;103500.13;5043492;28;62064;-71
2022/01/12 05:17:06;;;;;;;;;71.33;52.67;;;;;7.72;72.31;103494.44;5043679;28;62121;-71
2022/01/12 05:19:31;;;;;;;;;77.33;50.67;;;;;7.79;72.52;103489.03;5043763;28;61738;-71
2022/01/12 05:21:57;;;;;;;;;75.00;52.00;;;;;7.82;71.89;103485.81;5042857;28;61721;-71
2022/01/12 05:24:22;;;;;;;;;70.00;51.67;;;;;7.87;72.89;103478.44;5043543;28;61813;-71
2022/01/12 05:26:47;;;;;;;;;71.67;52.67;;;;;7.92;71.86;103474.56;5043216;28;61791;-71
2022/01/12 05:29:13;;;;;;;;;70.00;51.00;;;;;7.90;71.77;103473.47;5043360;28;61994;-71
2022/01/12 05:31:39;;;;;;;;;69.33;51.67;;;;;7.90;71.75;103474.41;5042831;28;62543;-71
2022/01/12 05:34:04;;;;;;;;;73.75;49.00;;;;;7.91;71.92;103475.34;5053672;28;61778;-71
2022/01/12 05:36:32;;;;;;;;;75.67;51.00;;;;;7.94;71.17;103478.25;5063608;28;61884;-71
2022/01/12 05:38:58;;;;;;;;;73.00;49.50;;;;;7.91;71.73;103478.88;5062882;28;61792;-71
2022/01/12 05:41:23;;;;;;;;;74.67;52.00;;;;;7.94;72.19;103479.16;5062502;28;61764;-71
2022/01/12 05:43:49;;;;;;;;;71.67;48.67;;;;;7.96;71.83;103472.38;5063462;28;61703;-71
2022/01/12 05:46:15;;;;;;;;;72.67;52.33;;;;;7.98;71.82;103464.69;5063081;28;62134;-71
2022/01/12 05:51:28;;;;;;;;;66.25;48.50;;;;;8.09;72.21;103473.59;5062381;28;61963;-71
2022/01/12 05:53:54;;;;;;;;;71.33;54.33;;;;;8.04;70.92;103482.72;5063147;28;62454;-71
2022/01/12 05:56:20;;;;;;;;;85.67;57.00;;;;;8.03;71.16;103475.59;5062683;28;62009;-71
2022/01/12 05:58:46;;;;;;;;;78.67;55.00;;;;;7.83;71.44;103490.25;5062006;28;61889;-71
2022/01/12 06:01:11;;;;;;;;;71.67;53.00;;;;;7.85;71.50;103487.81;5062474;28;62805;-71
2022/01/12 06:03:37;;;;;;;;;73.67;53.33;;;;;7.92;72.03;103492.88;5062752;28;61895;-71
2022/01/12 06:06:02;;;;;;;;;71.67;49.67;;;;;7.95;71.76;103491.47;5063161;28;61809;-71
2022/01/12 06:08:28;;;;;;;;;77.00;51.33;;;;;7.95;71.72;103485.34;5078609;27;61736;-72
2022/01/12 06:10:53;;;;;;;;;75.00;55.67;;;;;8.01;71.83;103495.47;5062027;28;63173;-71
2022/01/12 06:13:19;;;;;;;;;74.33;51.67;;;;;8.02;72.07;103494.72;5062401;28;61913;-71
2022/01/12 06:15:44;;;;;;;;;75.00;55.33;;;;;8.02;71.69;103476.41;5062745;28;62111;-73
2022/01/12 06:18:09;;;;;;;;;70.33;52.00;;;;;8.05;71.54;103479.28;5062746;28;61830;-73
2022/01/12 06:20:35;;;;;;;;;68.33;52.33;;;;;8.07;71.38;103483.91;5077342;28;63871;-73
2022/01/12 06:23:00;;;;;;;;;67.00;52.33;;;;;8.02;71.33;103476.41;5062677;28;61760;-72
2022/01/12 06:25:26;;;;;;;;;77.00;53.67;;;;;7.96;70.96;103468.88;5062095;28;62445;-73
2022/01/12 06:27:55;;;;;;;;;66.67;52.00;;;;;7.87;71.19;103483.66;5063011;28;61742;-73
2022/01/12 06:32:58;;;;;;;;;73.33;48.67;;;;;7.85;71.59;103482.59;5061411;28;62026;-73
2022/01/12 06:35:25;;;;;;;;;76.67;49.00;;;;;7.89;72.06;103488.25;5042116;28;62114;-73
2022/01/12 06:37:51;;;;;;;;;73.33;51.33;;;;;7.94;72.02;103486.09;5042629;28;61813;-72
2022/01/12 06:40:18;;;;;;;;;86.33;55.00;;;;;7.96;71.81;103509.00;5041073;28;62771;-71
2022/01/12 06:42:43;;;;;;;;;77.00;52.33;;;;;7.98;72.33;103507.47;5050219;28;62035;-72
2022/01/12 06:45:09;;;;;;;;;70.67;48.33;;;;;7.89;71.47;103498.72;5055768;28;61958;-71
2022/01/12 06:47:35;;;;;;;;;84.00;58.00;;;;;7.92;73.12;103503.31;5056251;28;62241;-70
2022/01/12 06:50:01;;;;;;;;;72.33;55.67;;;;;8.01;72.97;103511.16;5060542;28;62101;-70
2022/01/12 06:52:26;;;;;;;;;79.50;58.25;;;;;8.07;72.20;103507.44;5061727;28;61859;-70
2022/01/12 06:54:51;;;;;;;;;75.33;53.67;;;;;8.08;71.90;103500.53;5061480;28;61974;-70
2022/01/12 06:57:17;;;;;;;;;74.33;54.00;;;;;8.08;72.59;103511.00;5062109;28;62024;-70
2022/01/12 06:59:43;;;;;;;;;72.00;49.33;;;;;8.09;72.45;103503.28;5060456;28;61833;-70
2022/01/12 07:02:09;;;;;;;;;78.00;56.33;;;;;8.13;72.42;103500.22;5061860;28;61769;-70
2022/01/12 07:04:35;;;;;;;;;73.67;53.67;;;;;8.18;72.45;103503.25;5062037;28;62113;-70
2022/01/12 07:07:01;;;;;;;;;77.33;55.33;;;;;8.18;71.82;103498.97;5062410;28;61904;-71
2022/01/12 07:09:26;;;;;;;;;74.00;52.33;;;;;8.19;71.20;103503.44;5076509;28;63803;-71
2022/01/12 07:11:51;;;;;;;;;80.33;56.33;;;;;8.12;71.47;103494.81;5062170;28;61926;-69
2022/01/12 07:14:17;;;;;;;;;64.67;49.00;;;;;8.12;72.23;103494.81;5061802;28;61732;-70
2022/01/12 07:16:42;;;;;;;;;77.67;54.67;;;;;8.17;72.14;103496.22;5061975;28;62130;-69
2022/01/12 07:19:08;;;;;;;;;83.67;52.33;;;;;8.21;71.83;103476.50;5061156;28;62803;-69
2022/01/12 07:21:33;;;;;;;;;84.33;55.33;;;;;8.26;71.24;103481.38;5061591;28;61896;-71
2022/01/12 07:24:00;;;;;;;;;67.33;53.33;;;;;8.27;72.14;103479.69;5052662;28;61854;-71
2022/01/12 07:26:25;;;;;;;;;68.00;49.67;;;;;8.31;71.73;103489.69;5050591;28;61803;-71
2022/01/12 07:28:51;;;;;;;;;67.33;53.00;;;;;8.29;70.46;103493.84;5066792;28;65157;-71
2022/01/12 07:31:17;;;;;;;;;75.33;52.67;;;;;8.26;71.50;103510.19;5051121;28;62024;-71
2022/01/12 07:33:43;;;;;;;;;79.33;58.67;;;;;8.25;71.36;103513.59;5053555;28;62091;-71
2022/01/12 07:36:08;;;;;;;;;72.67;55.33;;;;;8.26;71.91;103518.03;5065814;27;62162;-70
2022/01/12 07:38:34;;;;;;;;;84.67;55.00;;;;;8.16;71.36;103520.50;5051248;28;62693;-71
2022/01/12 07:40:59;;;;;;;;;83.33;56.67;;;;;8.19;71.52;103526.06;5050235;28;61943;-71
2022/01/12 07:43:25;;;;;;;;;76.67;54.67;;;;;8.10;71.29;103525.16;5052326;28;61709;-71
2022/01/12 07:45:50;;;;;;;;;78.67;54.00;;;;;7.94;71.21;103533.16;5047196;28;61908;-71
2022/01/12 07:48:16;;;;;;;;;75.00;56.33;;;;;7.81;72.05;103527.50;5053635;28;61833;-72
2022/01/12 07:50:44;;;;;;;;;77.67;54.67;;;;;7.87;72.73;103542.09;5045743;28;61881;-71
2022/01/12 07:53:10;;;;;;;;;78.00;53.33;;;;;7.88;72.85;103538.69;5047607;28;61959;-71
2022/01/12 07:55:36;;;;;;;;;81.67;52.67;;;;;7.93;73.13;103547.03;5060971;28;62278;-71
2022/01/12 07:58:01;;;;;;;;;83.33;56.33;;;;;7.99;72.47;103547.66;5060388;28;63154;-71
2022/01/12 08:00:27;;;;;;;;;69.33;54.00;;;;;7.88;71.53;103559.63;5061531;28;61819;-71
2022/01/12 08:02:53;;;;;;;;;79.33;56.33;;;;;7.92;72.74;103569.63;5064410;28;61976;-71
2022/01/12 08:05:19;;;;;;;;;78.67;55.33;;;;;7.93;72.07;103576.72;5065282;28;62035;-71
2022/01/12 08:07:46;;;;;;;;;74.67;54.00;;;;;7.97;72.14;103576.25;5060298;28;62745;-74
2022/01/12 08:10:12;;;;;;;;;80.00;50.33;;;;;7.98;72.27;103575.47;5055874;28;61700;-75
2022/01/12 08:12:37;;;;;;;;;70.67;53.67;;;;;8.01;72.07;103574.84;5055375;28;61700;-75
2022/01/12 08:15:06;;;;;;;;;79.33;57.67;;;;;8.08;72.19;103586.88;5064832;28;61843;-74
2022/01/12 08:17:33;;;;;;;;;78.67;57.67;;;;;8.08;72.53;103592.09;5063046;28;64968;-73
2022/01/12 08:20:00;;;;;;;;;73.00;55.33;;;;;8.10;71.64;103599.31;5044529;28;61957;-73
2022/01/12 08:22:25;;;;;;;;;79.00;53.67;;;;;8.10;72.40;103612.41;5043218;28;61834;-73
2022/01/12 08:24:51;;;;;;;;;78.67;55.00;;;;;8.15;72.03;103612.84;5050323;28;61930;-73
2022/01/12 08:27:16;;;;;;;;;67.67;50.00;;;;;8.13;71.60;103610.09;5063493;28;62086;-73
2022/01/12 08:29:42;;;;;;;;;75.33;52.67;;;;;8.14;71.79;103617.19;5064650;28;61792;-73
2022/01/12 08:32:07;;;;;;;;;79.00;52.00;;;;;8.14;71.70;103625.03;5080113;28;62183;-73
2022/01/12 08:34:33;;;;;;;;;75.00;57.33;;;;;8.20;71.99;103622.09;5064020;28;62219;-73
2022/01/12 08:36:58;;;;;;;;;79.00;57.00;;;;;8.19;72.07;103620.25;5063704;28;62356;-74
2022/01/12 08:39:24;;;;;;;;;81.00;57.00;;;;;8.26;72.07;103622.69;5053268;28;61988;-74
2022/01/12 08:41:49;;;;;;;;;79.00;50.33;;;;;8.21;71.73;103618.72;5043912;28;61813;-75
2022/01/12 08:44:15;;;;;;;;;73.33;55.00;;;;;8.16;71.61;103613.03;5044246;28;62013;-74
2022/01/12 08:46:41;;;;;;;;;71.75;52.75;;;;;8.19;72.41;103615.00;5045029;28;61825;-73
2022/01/12 08:49:07;;;;;;;;;79.33;53.00;;;;;8.18;72.07;103626.22;5051831;28;62257;-74
2022/01/12 08:51:32;;;;;;;;;72.33;52.00;;;;;8.16;71.90;103628.72;5049225;28;62565;-74
2022/01/12 08:53:58;;;;;;;;;64.67;47.67;;;;;8.15;72.03;103628.56;5043732;28;62118;-74
2022/01/12 08:56:24;;;;;;;;;73.75;52.25;;;;;8.26;72.50;103630.53;5042554;28;61737;-75
2022/01/12 08:58:49;;;;;;;;;62.50;47.25;;;;;8.36;72.47;103627.16;5050676;28;62380;-75
2022/01/12 09:01:15;;;;;;;;;68.67;50.33;;;;;8.39;72.13;103630.97;5054183;28;61934;-75
2022/01/12 09:03:41;;;;;;;;;84.67;57.67;;;;;8.29;71.16;103627.31;5053860;28;61885;-74
2022/01/12 09:06:07;;;;;;;;;67.33;50.67;;;;;8.36;71.94;103632.41;5078757;28;63599;-73
2022/01/12 09:08:34;;;;;;;;;76.67;55.00;;;;;8.45;72.29;103637.66;5063775;28;61864;-73
2022/01/12 09:11:00;;;;;;;;;79.67;52.67;;;;;8.54;72.24;103649.94;5063626;28;62046;-73
2022/01/12 09:13:25;;;;;;;;;78.67;57.33;;;;;8.48;70.76;103649.31;5063264;28;61959;-72
2022/01/12 09:15:51;;;;;;;;;67.00;51.33;;;;;8.43;71.06;103657.50;5063127;28;62221;-73
2022/01/12 09:18:18;;;;;;;;;76.33;56.67;;;;;8.36;71.26;103669.94;5063623;28;61917;-74
2022/01/12 09:20:44;;;;;;;;;64.67;49.00;;;;;8.46;72.03;103676.13;5063757;28;62008;-74
2022/01/12 09:23:09;;;;;;;;;72.00;47.33;;;;;8.50;71.75;103681.81;5063641;28;62021;-74
2022/01/12 09:25:39;;;;;;;;;68.25;49.00;;;;;8.60;71.91;103694.13;5062615;28;61849;-74
2022/01/12 09:28:05;;;;;;;;;68.75;52.50;;;;;8.56;70.43;103695.53;5063443;28;61803;-74
2022/01/12 09:30:30;;;;;;;;;66.00;52.00;;;;;8.52;70.41;103703.84;5052646;28;61872;-75
2022/01/12 09:32:56;;;;;;;;;75.67;51.33;;;;;8.48;70.08;103703.38;5045143;28;62108;-74
2022/01/12 09:35:21;;;;;;;;;71.67;53.33;;;;;8.35;70.06;103694.25;5062274;28;62199;-74
2022/01/12 09:37:47;;;;;;;;;59.75;48.75;;;;;8.38;70.58;103699.81;5063566;28;62142;-74
2022/01/12 09:40:13;;;;;;;;;76.50;51.75;;;;;8.43;69.94;103710.78;5062257;28;62240;-72
2022/01/12 09:42:39;;;;;;;;;74.00;53.33;;;;;8.44;70.27;103706.47;5079093;28;62058;-72
2022/01/12 09:45:07;;;;;;;;;71.00;46.67;;;;;8.51;70.54;103714.19;5062821;28;61952;-74
2022/01/12 09:47:32;;;;;;;;;69.00;49.33;;;;;8.70;71.11;103717.84;5063285;28;61904;-73
2022/01/12 09:49:58;;;;;;;;;70.00;51.67;;;;;8.84;70.28;103708.72;5063425;28;62016;-74
2022/01/12 09:52:23;;;;;;;;;72.33;55.00;;;;;8.96;70.53;103715.19;5063314;28;61923;-73
2022/01/12 09:54:49;;;;;;;;;66.00;53.00;;;;;9.08;69.96;103718.06;5052156;28;62019;-73
2022/01/12 09:57:15;;;;;;;;;66.33;51.00;;;;;9.11;68.91;103706.97;5049577;28;62074;-73
2022/01/12 09:59:41;;;;;;;;;70.67;48.67;;;;;9.08;69.01;103711.91;5049987;28;62125;-72
2022/01/12 10:02:18;;;;;;;;;68.50;52.00;;;;;9.14;68.77;103713.41;5051144;28;62176;-73
2022/01/12 10:04:44;;;;;;;;;67.33;50.67;;;;;9.25;68.19;103714.47;5049388;28;64762;-73
2022/01/12 10:07:11;;;;;;;;;78.00;55.67;;;;;9.39;68.91;103708.88;5051858;28;61910;-72
2022/01/12 10:09:49;;;;;;;;;71.33;54.00;;;;;9.37;67.48;103722.59;5049642;28;62097;-72
2022/01/12 10:12:16;;;;;;;;;74.67;51.33;;;;;9.40;67.46;103715.97;5049516;28;62372;-72
2022/01/12 10:14:42;;;;;;;;;62.33;49.00;;;;;9.59;68.19;103725.59;5052395;28;62689;-72
2022/01/12 10:17:08;;;;;;;;;77.00;55.67;;;;;9.81;68.51;103720.66;5047165;28;62245;-73
2022/01/12 10:19:34;;;;;;;;;70.75;54.00;;;;;10.02;67.25;103717.44;5050383;28;61897;-73
2022/01/12 10:22:14;;;;;;;;;79.67;52.33;;;;;10.02;67.09;103711.28;5042783;28;61873;-73
2022/01/12 10:24:43;;;;;;;;;68.00;53.33;;;;;9.94;66.55;103714.88;5055870;28;64794;-72
2022/01/12 10:27:20;;;;;;;;;79.67;51.00;;;;;10.01;66.21;103719.94;5049180;28;61909;-73
2022/01/12 10:29:56;;;;;;;;;63.00;47.00;;;;;10.05;66.01;103716.84;5053080;28;61857;-72
2022/01/12 10:32:22;;;;;;;;;75.67;54.00;;;;;10.08;66.06;103726.69;5050846;28;61940;-73
2022/01/12 10:34:51;;;;;;;;;73.33;54.00;;;;;10.13;65.63;103725.41;5051383;28;62514;-73
2022/01/12 10:37:22;;;;;;;;;69.33;50.67;;;;;10.15;66.52;103718.59;5052849;28;61860;-73
2022/01/12 10:39:49;;;;;;;;;68.33;50.67;;;;;10.19;65.99;103721.66;5052308;28;61722;-72
2022/01/12 10:42:23;;;;;;;;;49.75;42.25;;;;;10.25;66.11;103721.31;5048478;28;61902;-72
2022/01/12 10:44:51;;;;;;;;;61.25;49.50;;;;;10.35;65.73;103720.50;5054388;28;62565;-72
2022/01/12 10:47:22;;;;;;;;;73.25;53.00;;;;;10.56;66.49;103718.91;5062418;28;61830;-72
2022/01/12 10:49:54;;;;;;;;;59.00;43.00;;;;;10.63;64.81;103716.09;5051908;28;62353;-73
2022/01/12 10:52:20;;;;;;;;;76.33;51.00;;;;;10.66;64.14;103713.72;5047841;28;62036;-72
2022/01/12 10:54:58;;;;;;;;;68.33;51.67;;;;;10.64;64.40;103703.06;5069386;28;63964;-72
2022/01/12 10:57:32;;;;;;;;;72.33;52.00;;;;;10.66;63.73;103708.47;5043980;28;62101;-72
2022/01/12 11:00:18;;;;;;;;;68.25;51.25;;;;;10.68;64.71;103708.63;5056635;28;61791;-73
2022/01/12 11:02:52;;;;;;;;;71.50;52.50;;;;;10.70;63.82;103707.06;5039841;28;62208;-72
2022/01/12 11:05:19;;;;;;;;;70.75;50.00;;;;;10.64;63.79;103720.53;5039226;28;61847;-73
2022/01/12 11:07:44;;;;;;;;;69.25;53.50;;;;;10.53;63.32;103721.28;5040240;28;61768;-72
2022/01/12 11:10:11;;;;;;;;;73.67;53.33;;;;;10.44;63.25;103718.72;5041409;28;61872;-72
2022/01/12 11:12:38;;;;;;;;;65.75;50.75;;;;;10.48;64.57;103718.22;5041430;28;61938;-72
2022/01/12 11:15:09;;;;;;;;;76.75;56.00;;;;;10.53;64.35;103722.19;5040637;28;62647;-72
2022/01/12 11:17:35;;;;;;;;;72.50;50.50;;;;;10.48;63.56;103720.84;5060432;28;61872;-73
2022/01/12 11:20:21;;;;;;;;;71.50;51.50;;;;;10.58;63.92;103718.31;5054140;28;62062;-73
2022/01/12 11:23:08;;;;;;;;;72.00;50.00;;;;;10.73;65.30;103713.53;5061024;28;61735;-73
2022/01/12 11:25:38;;;;;;;;;70.50;56.00;;;;;10.83;64.08;103717.88;5060501;28;62542;-72
2022/01/12 11:28:23;;;;;;;;;69.75;52.25;;;;;10.74;63.95;103714.44;5061607;28;61960;-73
2022/01/12 11:30:51;;;;;;;;;73.75;52.50;;;;;10.77;64.27;103718.25;5061729;28;61816;-74
2022/01/12 11:33:19;;;;;;;;;64.75;47.75;;;;;10.83;64.52;103712.63;5060353;28;62020;-73
2022/01/12 11:35:51;;;;;;;;;69.75;52.50;;;;;10.95;63.57;103720.72;5040681;28;62682;-73
2022/01/12 11:38:29;;;;;;;;;78.50;52.25;;;;;10.91;63.64;103710.72;5045024;28;61937;-73
2022/01/12 11:41:07;;;;;;;;;65.75;50.00;;;;;10.81;64.17;103707.22;5063434;28;61978;-73
2022/01/12 11:43:43;;;;;;;;;64.75;52.50;;;;;10.80;63.32;103705.41;5053018;28;62365;-73
2022/01/12 11:46:11;;;;;;;;;70.25;52.00;;;;;10.66;63.05;103695.34;5059207;28;62046;-72
2022/01/12 11:48:50;;;;;;;;;63.25;45.25;;;;;10.70;63.06;103700.09;5058801;28;62152;-73
2022/01/12 11:51:18;;;;;;;;;71.75;53.00;;;;;10.79;63.96;103694.75;5060484;28;61900;-73
2022/01/12 11:53:49;;;;;;;;;62.25;48.25;;;;;10.78;62.89;103690.28;5063751;28;61995;-73
2022/01/12 11:56:18;;;;;;;;;69.50;52.00;;;;;10.82;63.89;103689.78;5062664;28;61884;-74
2022/01/12 11:58:57;;;;;;;;;65.25;46.00;;;;;10.76;62.68;103690.16;5064183;28;61919;-71
2022/01/12 12:01:35;;;;;;;;;79.25;54.25;;;;;10.72;62.83;103692.34;5063955;28;61866;-72
2022/01/12 12:04:03;;;;;;;;;67.25;53.25;;;;;11.10;62.65;103685.28;5064584;28;61718;-72
2022/01/12 12:06:29;;;;;;;;;68.00;53.25;;;;;11.18;61.88;103686.91;5063811;28;62686;-72
2022/01/12 12:09:02;;;;;;;;;65.25;49.50;;;;;11.35;62.51;103695.34;5060333;28;61808;-73
2022/01/12 12:11:29;;;;;;;;;63.00;49.25;;;;;11.35;61.67;103688.34;5052690;28;62281;-78
2022/01/12 12:14:06;;;;;;;;;73.00;50.50;;;;;11.44;62.84;103678.66;5047824;28;62202;-73
2022/01/12 12:16:33;;;;;;;;;67.25;48.75;;;;;11.53;61.23;103685.53;5052797;28;62595;-73
2022/01/12 12:19:04;;;;;;;;;72.00;57.00;;;;;11.51;61.27;103681.84;5054757;28;62059;-72
2022/01/12 12:21:32;;;;;;;;;68.00;51.75;;;;;11.43;61.02;103676.81;5052448;28;62260;-72
2022/01/12 12:24:13;;;;;;;;;68.67;53.33;;;;;11.45;62.21;103667.34;5070721;28;62001;-72
2022/01/12 12:26:52;;;;;;;;;61.50;51.00;;;;;11.50;62.18;103666.81;5053979;28;62731;-73
2022/01/12 12:29:28;;;;;;;;;72.00;52.25;;;;;11.71;62.55;103673.03;5048924;28;61901;-72
2022/01/12 12:31:58;;;;;;;;;77.25;55.00;;;;;11.75;61.10;103660.25;5056506;28;62218;-72
2022/01/12 12:34:27;;;;;;;;;73.75;56.75;;;;;11.81;61.07;103660.78;5076171;27;61883;-72
2022/01/12 12:36:57;;;;;;;;;63.00;49.75;;;;;11.88;60.98;103654.38;5043153;28;62709;-72